Time;durP1;ratioP1;P1;durP2;ratioP2;P2;SDS_P1;SDS_P2;PMS_P1;PMS_P2;Temp;Humidity;BMP_temperature;BMP_pressure;BME280_temperature;BME280_humidity;BME280_pressure;Samples;Min_cycle;Max_cycle;Signal;HPM_P1;HPM_P2
2023/02/07 00:00:00;;;;;;;9.17;4.90;;;;;;;-3.09;100.00;102091.72;5023880;28;20048;-66
2023/02/07 00:02:25;;;;;;;7.80;4.63;;;;;;;-3.23;100.00;102066.44;5033227;28;20018;-66
2023/02/07 00:04:51;;;;;;;8.03;4.80;;;;;;;-3.15;100.00;102073.31;5033209;28;20029;-66
2023/02/07 00:07:16;;;;;;;9.33;5.10;;;;;;;-3.06;100.00;102101.28;5032404;28;20032;-66
2023/02/07 00:09:42;;;;;;;9.17;4.80;;;;;;;-3.09;100.00;102096.75;5032679;28;20040;-66
2023/02/07 00:12:07;;;;;;;8.17;4.60;;;;;;;-3.10;100.00;102099.13;5032465;28;20036;-66
2023/02/07 00:14:33;;;;;;;9.00;5.00;;;;;;;-3.30;100.00;102076.56;5032662;28;20037;-66
2023/02/07 00:16:58;;;;;;;8.70;4.87;;;;;;;-3.29;100.00;102091.88;5015426;28;20033;-66
2023/02/07 00:19:23;;;;;;;9.27;4.90;;;;;;;-3.24;100.00;102102.50;5032687;28;20029;-67
2023/02/07 00:21:49;;;;;;;9.50;4.97;;;;;;;-3.28;100.00;102100.34;5032638;28;20044;-67
2023/02/07 00:24:14;;;;;;;8.13;4.60;;;;;;;-3.33;100.00;102087.16;5032406;28;20029;-66
2023/02/07 00:26:40;;;;;;;8.43;4.77;;;;;;;-3.33;100.00;102073.66;5032227;28;20123;-66
2023/02/07 00:29:05;;;;;;;7.50;4.37;;;;;;;-3.21;100.00;102107.94;5032913;28;20032;-66
2023/02/07 00:31:33;;;;;;;8.70;4.70;;;;;;;-3.23;100.00;102106.84;5031920;28;20025;-66
2023/02/07 00:34:01;;;;;;;7.23;4.73;;;;;;;-3.25;100.00;102114.25;5032794;28;20036;-66
2023/02/07 00:36:29;;;;;;;8.45;5.07;;;;;;;-3.24;100.00;102112.63;5032340;28;20033;-66
2023/02/07 00:38:56;;;;;;;8.83;5.20;;;;;;;-3.38;100.00;102079.78;5031665;28;20081;-66
2023/02/07 00:41:22;;;;;;;9.10;5.40;;;;;;;-3.20;100.00;102117.34;5032319;28;20040;-66
2023/02/07 00:43:48;;;;;;;7.93;4.30;;;;;;;-3.19;100.00;102114.09;5032366;28;20399;-66
2023/02/07 00:46:14;;;;;;;7.47;4.83;;;;;;;-3.15;100.00;102118.78;5032394;28;20029;-67
2023/02/07 00:48:40;;;;;;;8.80;5.10;;;;;;;-3.32;100.00;102110.81;5032273;28;20090;-69
2023/02/07 00:51:06;;;;;;;10.63;5.93;;;;;;;-3.35;100.00;102129.03;5031476;28;20387;-67
2023/02/07 00:53:32;;;;;;;9.80;4.83;;;;;;;-3.38;100.00;102123.59;5031845;28;20441;-67
2023/02/07 00:55:57;;;;;;;8.20;4.80;;;;;;;-3.31;100.00;102123.63;5031962;28;20025;-66
2023/02/07 00:58:23;;;;;;;8.73;4.87;;;;;;;-3.62;100.00;102074.53;5032173;28;20033;-69
2023/02/07 01:00:49;;;;;;;9.83;4.63;;;;;;;-3.33;100.00;102127.56;5031464;28;20025;-69
2023/02/07 01:03:16;;;;;;;10.13;4.93;;;;;;;-3.67;100.00;102079.75;5031812;28;20530;-69
2023/02/07 01:05:41;;;;;;;7.83;4.87;;;;;;;-3.44;100.00;102126.31;5031943;28;20392;-69
2023/02/07 01:08:07;;;;;;;8.20;4.77;;;;;;;-3.44;100.00;102118.75;5031032;28;20029;-69
2023/02/07 01:10:33;;;;;;;7.43;4.57;;;;;;;-3.53;100.00;102106.63;5031612;28;20479;-69
2023/02/07 01:13:00;;;;;;;7.43;4.33;;;;;;;-3.47;100.00;102123.41;5031458;28;20029;-69
2023/02/07 01:15:25;;;;;;;8.43;5.30;;;;;;;-3.57;100.00;102113.81;5018576;28;20025;-69
2023/02/07 01:17:51;;;;;;;10.53;4.90;;;;;;;-3.45;100.00;102127.03;5031422;28;20034;-69
2023/02/07 01:20:17;;;;;;;9.20;5.00;;;;;;;-3.45;100.00;102126.13;5031874;28;20021;-69
2023/02/07 01:22:42;;;;;;;8.87;5.20;;;;;;;-3.45;100.00;102119.47;5031088;28;20036;-68
2023/02/07 01:25:08;;;;;;;8.70;4.80;;;;;;;-3.44;100.00;102117.81;5018308;28;20455;-69
2023/02/07 01:27:35;;;;;;;8.37;4.93;;;;;;;-3.43;100.00;102112.97;5031570;28;20026;-69
2023/02/07 01:30:01;;;;;;;9.37;4.53;;;;;;;-3.53;100.00;102099.97;5031244;28;20029;-69
2023/02/07 01:32:26;;;;;;;10.37;5.73;;;;;;;-3.54;100.00;102102.31;5031431;28;20108;-70
2023/02/07 01:34:52;;;;;;;10.70;5.23;;;;;;;-3.62;100.00;102086.25;5031554;28;20159;-69
2023/02/07 01:37:17;;;;;;;9.40;5.40;;;;;;;-3.47;100.00;102120.88;5030860;28;20037;-68
2023/02/07 01:39:43;;;;;;;10.73;5.30;;;;;;;-3.40;100.00;102122.53;5031310;28;20523;-69
2023/02/07 01:42:13;;;;;;;10.23;5.30;;;;;;;-3.48;100.00;102118.19;5031129;28;20491;-69
2023/02/07 01:44:41;;;;;;;12.30;6.07;;;;;;;-3.75;100.00;102129.28;5031291;28;20380;-69
2023/02/07 01:47:13;;;;;;;9.43;5.27;;;;;;;-4.06;100.00;102076.03;5030971;28;20029;-69
2023/02/07 01:49:39;;;;;;;10.37;5.17;;;;;;;-3.88;100.00;102116.81;5030433;28;20044;-69
2023/02/07 01:52:11;;;;;;;10.90;5.10;;;;;;;-3.71;100.00;102128.03;5031074;28;20030;-69
2023/02/07 01:54:39;;;;;;;8.60;4.83;;;;;;;-3.95;100.00;102076.41;5030953;28;20021;-69
2023/02/07 01:57:08;;;;;;;8.83;4.97;;;;;;;-4.08;100.00;102072.41;4995613;28;20036;-69
2023/02/07 01:59:36;;;;;;;7.78;4.43;;;;;;;-3.82;100.00;102135.22;5013381;28;20030;-68
2023/02/07 02:02:03;;;;;;;8.23;5.07;;;;;;;-3.92;100.00;102118.06;5030439;28;20041;-69
2023/02/07 02:04:29;;;;;;;8.93;4.83;;;;;;;-3.74;100.00;102128.56;5030974;28;20021;-69
2023/02/07 02:06:55;;;;;;;8.97;4.90;;;;;;;-3.78;100.00;102124.78;5030976;28;20032;-68
2023/02/07 02:09:21;;;;;;;10.33;5.40;;;;;;;-3.90;100.00;102072.81;5030687;28;20021;-69
2023/02/07 02:12:01;;;;;;;9.23;5.30;;;;;;;-3.61;100.00;102115.81;5030261;28;20437;-67
2023/02/07 02:14:55;;;;;;;9.02;5.13;;;;;;;-3.60;100.00;102123.56;5029988;28;20064;-66
2023/02/07 02:17:35;;;;;;;10.70;5.57;;;;;;;-3.63;100.00;102129.88;5012999;28;20029;-66
2023/02/07 02:20:19;;;;;;;7.00;4.33;;;;;;;-3.69;100.00;102130.03;5030390;28;20104;-66
2023/02/07 02:23:12;;;;;;;9.90;5.37;;;;;;;-3.91;100.00;102139.16;5030350;28;20472;-66
2023/02/07 02:26:05;;;;;;;9.63;5.10;;;;;;;-4.15;100.00;102085.03;5030687;28;20486;-66
2023/02/07 02:28:36;;;;;;;10.27;5.80;;;;;;;-3.89;100.00;102142.75;5018076;28;20464;-66
2023/02/07 02:31:16;;;;;;;9.57;5.20;;;;;;;-3.94;100.00;102138.78;5029921;28;20116;-68
2023/02/07 02:34:00;;;;;;;9.43;4.97;;;;;;;-4.13;100.00;102128.97;5019229;28;20083;-68
2023/02/07 02:36:35;;;;;;;10.97;5.83;;;;;;;-4.09;100.00;102123.59;5029974;28;20021;-68
2023/02/07 02:39:42;;;;;;;9.83;5.60;;;;;;;-4.01;100.00;102141.25;5030268;28;20046;-68
2023/02/07 02:42:22;;;;;;;11.93;5.90;;;;;;;-4.20;100.00;102125.50;4969032;28;20047;-67
2023/02/07 02:45:03;;;;;;;11.53;5.80;;;;;;;-4.16;100.00;102136.16;4968167;28;20039;-68
2023/02/07 02:47:31;;;;;;;14.80;7.43;;;;;;;-4.45;100.00;102094.75;4968792;28;20421;-66
2023/02/07 02:49:57;;;;;;;13.37;6.83;;;;;;;-4.13;100.00;102136.53;4969023;28;20099;-68
2023/02/07 02:52:24;;;;;;;12.00;6.63;;;;;;;-4.10;100.00;102141.03;4968577;28;20038;-68
2023/02/07 02:54:50;;;;;;;9.53;5.50;;;;;;;-4.03;100.00;102142.72;4968712;28;20121;-67
2023/02/07 02:57:15;;;;;;;9.73;5.63;;;;;;;-3.92;100.00;102138.25;4968750;28;20631;-67
2023/02/07 03:00:17;;;;;;;9.40;5.27;;;;;;;-3.82;100.00;102141.91;4969111;28;20042;-66
2023/02/07 03:03:10;;;;;;;9.97;5.37;;;;;;;-3.74;100.00;102138.66;4968907;28;20042;-66
2023/02/07 03:05:57;;;;;;;9.70;5.97;;;;;;;-3.65;100.00;102141.41;4968860;28;20464;-67
2023/02/07 03:08:43;;;;;;;10.47;5.50;;;;;;;-3.57;100.00;102140.72;4968658;28;20039;-67
2023/02/07 03:11:11;;;;;;;8.97;5.70;;;;;;;-3.59;100.00;102129.50;4968912;28;20039;-68
2023/02/07 03:14:03;;;;;;;9.80;5.80;;;;;;;-3.42;100.00;102149.22;4968375;28;20038;-66
2023/02/07 03:16:34;;;;;;;10.43;6.00;;;;;;;-3.41;100.00;102144.34;4968652;28;20142;-69
2023/02/07 03:19:24;;;;;;;9.97;5.70;;;;;;;-3.35;100.00;102146.72;4986481;28;20419;-68
2023/02/07 03:21:55;;;;;;;;;;;;;;;-3.32;100.00;102136.97;5030071;28;20036;-69
2023/02/07 03:24:25;;;;;;;10.97;5.93;;;;;;;-3.39;100.00;102124.31;5029683;28;19905;-69
2023/02/07 03:26:55;;;;;;;11.53;5.87;;;;;;;-3.26;100.00;102142.75;5032647;28;20102;-69
2023/02/07 03:29:23;;;;;;;12.03;5.90;;;;;;;-3.26;100.00;102144.38;5032974;28;20091;-68
2023/02/07 03:31:53;;;;;;;11.10;6.10;;;;;;;-3.27;100.00;102137.53;5033110;28;20116;-69
2023/02/07 03:34:23;;;;;;;12.27;6.37;;;;;;;-3.17;100.00;102147.09;5015665;28;20040;-69
2023/02/07 03:36:57;;;;;;;11.10;6.63;;;;;;;-3.13;100.00;102141.69;5033753;28;20026;-69
2023/02/07 03:39:22;;;;;;;8.70;5.37;;;;;;;-3.06;100.00;102156.84;5032847;28;20480;-69
2023/02/07 03:41:56;;;;;;;10.13;4.97;;;;;;;-3.09;100.00;102129.59;5033537;28;20065;-69
2023/02/07 03:44:24;;;;;;;8.57;4.47;;;;;;;-2.93;100.00;102141.50;5032581;28;20021;-69
2023/02/07 03:46:51;;;;;;;8.40;4.50;;;;;;;-2.86;100.00;102145.69;5033338;28;20088;-69
2023/02/07 03:49:16;;;;;;;10.93;4.33;;;;;;;-2.90;100.00;102139.34;5032955;28;20072;-69
2023/02/07 03:51:43;;;;;;;12.37;5.60;;;;;;;-2.85;100.00;102138.28;5033448;28;20060;-69
2023/02/07 03:54:09;;;;;;;8.93;4.60;;;;;;;-3.03;100.00;102103.25;5033071;28;20443;-70
2023/02/07 03:56:35;;;;;;;14.17;5.40;;;;;;;-2.74;100.00;102152.19;5032539;28;20061;-69
2023/02/07 03:59:00;;;;;;;15.00;4.90;;;;;;;-2.73;100.00;102148.00;5015602;28;20072;-69
2023/02/07 04:01:26;;;;;;;16.63;5.43;;;;;;;-2.74;100.00;102152.19;5033430;28;20057;-69
2023/02/07 04:03:52;;;;;;;10.40;5.20;;;;;;;-2.69;100.00;102153.63;5033587;28;20438;-69
2023/02/07 04:06:17;;;;;;;12.43;4.20;;;;;;;-2.71;100.00;102159.22;5033427;28;20068;-69
2023/02/07 04:08:43;;;;;;;9.67;5.30;;;;;;;-2.77;100.00;102145.13;5033580;28;20078;-69
2023/02/07 04:11:08;;;;;;;8.97;4.77;;;;;;;-2.73;100.00;102151.44;5033403;28;20030;-69
2023/02/07 04:13:34;;;;;;;9.20;5.10;;;;;;;-2.70;100.00;102163.56;5033271;28;20506;-69
2023/02/07 04:16:01;;;;;;;10.50;5.13;;;;;;;-2.69;100.00;102150.16;5032856;28;20395;-69
2023/02/07 04:18:26;;;;;;;10.00;5.53;;;;;;;-2.67;100.00;102163.91;5033446;28;20033;-69
2023/02/07 04:21:00;;;;;;;9.57;4.80;;;;;;;-2.67;100.00;102168.94;5033152;28;20498;-69
2023/02/07 04:23:26;;;;;;;8.33;5.07;;;;;;;-2.77;100.00;102152.72;5032926;28;20116;-69
2023/02/07 04:25:51;;;;;;;9.53;5.77;;;;;;;-2.63;100.00;102173.63;5033103;28;20091;-69
2023/02/07 04:28:16;;;;;;;9.33;5.43;;;;;;;-2.66;100.00;102184.28;5033095;28;20083;-69
2023/02/07 04:30:42;;;;;;;8.23;4.97;;;;;;;-2.61;100.00;102177.25;4981696;28;20040;-69
2023/02/07 04:33:07;;;;;;;10.57;5.93;;;;;;;-2.67;100.00;102161.38;5033033;28;20033;-69
2023/02/07 04:35:32;;;;;;;9.87;4.67;;;;;;;-2.79;100.00;102143.13;5033227;28;20029;-69
2023/02/07 04:37:58;;;;;;;8.93;4.73;;;;;;;-2.68;100.00;102163.00;5032007;28;20037;-69
2023/02/07 04:40:25;;;;;;;8.13;4.77;;;;;;;-2.65;100.00;102180.16;5032514;28;20065;-69
2023/02/07 04:42:50;;;;;;;8.23;4.63;;;;;;;-2.88;100.00;102137.88;5033138;28;20491;-69
2023/02/07 04:45:15;;;;;;;7.93;4.03;;;;;;;-2.64;100.00;102181.97;5032580;28;20029;-69
2023/02/07 04:47:41;;;;;;;10.43;4.87;;;;;;;-2.66;100.00;102181.75;5032403;28;20029;-70
2023/02/07 04:50:07;;;;;;;10.73;4.67;;;;;;;-2.91;100.00;102140.06;5032573;28;20040;-69
2023/02/07 04:52:32;;;;;;;7.73;4.73;;;;;;;-2.68;100.00;102183.22;5032296;28;20507;-69
2023/02/07 04:54:58;;;;;;;9.20;4.93;;;;;;;-2.61;100.00;102182.31;5032379;28;20032;-69
2023/02/07 04:57:23;;;;;;;8.50;4.80;;;;;;;-2.61;100.00;102187.38;5032816;28;20041;-69
2023/02/07 04:59:49;;;;;;;9.20;5.27;;;;;;;-2.60;100.00;102192.59;5032649;28;20037;-68
2023/02/07 05:02:14;;;;;;;8.60;4.80;;;;;;;-2.56;100.00;102195.50;5032402;28;20036;-68
2023/02/07 05:04:39;;;;;;;9.23;5.10;;;;;;;-2.61;100.00;102200.91;5032356;28;20033;-68
2023/02/07 05:07:05;;;;;;;9.43;5.60;;;;;;;-2.63;100.00;102187.19;5032409;28;20025;-68
2023/02/07 05:09:30;;;;;;;12.10;5.13;;;;;;;-2.72;100.00;102186.09;5031996;28;20021;-68
2023/02/07 05:11:55;;;;;;;9.60;5.57;;;;;;;-2.72;100.00;102201.28;5032076;28;20086;-68
2023/02/07 05:14:21;;;;;;;9.10;5.40;;;;;;;-2.65;100.00;102192.81;5032066;28;20029;-69
2023/02/07 05:16:46;;;;;;;9.50;5.10;;;;;;;-2.68;100.00;102212.66;5032307;28;20041;-69
2023/02/07 05:19:12;;;;;;;8.93;5.07;;;;;;;-2.70;100.00;102206.53;5020249;28;20025;-69
2023/02/07 05:21:37;;;;;;;11.97;6.77;;;;;;;-3.28;100.00;102111.38;5012487;28;20411;-67
2023/02/07 05:24:03;;;;;;;12.83;6.63;;;;;;;-2.76;100.00;102214.28;5011999;28;20563;-67
2023/02/07 05:26:28;;;;;;;11.57;6.67;;;;;;;-2.83;100.00;102216.78;5012223;28;20087;-67
2023/02/07 05:28:53;;;;;;;8.70;6.00;;;;;;;-2.96;100.00;102219.50;5011926;28;20412;-67
2023/02/07 05:31:20;;;;;;;11.47;6.47;;;;;;;-3.12;100.00;102209.19;5012146;28;20026;-68
2023/02/07 05:33:45;;;;;;;10.53;6.30;;;;;;;-3.07;100.00;102220.72;5012028;28;20036;-67
2023/02/07 05:36:11;;;;;;;11.17;6.57;;;;;;;-3.16;100.00;102210.44;5012202;28;20026;-67
2023/02/07 05:38:36;;;;;;;11.73;6.57;;;;;;;-3.07;100.00;102225.78;5011760;28;20522;-66
2023/02/07 05:41:02;;;;;;;10.97;6.93;;;;;;;-3.01;100.00;102226.53;5011734;28;20050;-67
2023/02/07 05:43:27;;;;;;;10.17;6.40;;;;;;;-3.13;100.00;102195.66;5011754;28;20447;-67
2023/02/07 05:45:52;;;;;;;11.53;7.23;;;;;;;-3.28;100.00;102178.66;5011777;28;20025;-68
2023/02/07 05:48:18;;;;;;;13.00;6.57;;;;;;;-3.01;100.00;102226.53;5010974;28;20029;-66
2023/02/07 05:50:43;;;;;;;10.50;6.30;;;;;;;-2.99;100.00;102219.13;5011891;28;20025;-68
2023/02/07 05:53:09;;;;;;;13.83;7.07;;;;;;;-3.16;100.00;102191.84;5011560;28;20034;-68
2023/02/07 05:55:35;;;;;;;13.80;7.37;;;;;;;-3.02;100.00;102224.72;5011724;28;20459;-68
2023/02/07 05:58:01;;;;;;;13.83;8.40;;;;;;;-2.88;100.00;102241.50;5011721;28;20112;-68
2023/02/07 06:00:26;;;;;;;15.77;9.07;;;;;;;-2.83;100.00;102235.41;5011444;28;20108;-68
2023/02/07 06:02:52;;;;;;;14.20;8.07;;;;;;;-3.04;100.00;102197.44;5011320;28;20037;-68
2023/02/07 06:05:22;;;;;;;12.67;6.50;;;;;;;-2.98;100.00;102213.34;5011546;28;20041;-68
2023/02/07 06:07:49;;;;;;;12.97;6.40;;;;;;;-2.77;100.00;102247.84;5011453;28;20502;-68
2023/02/07 06:10:15;;;;;;;11.50;5.77;;;;;;;-2.79;100.00;102252.75;5011227;28;20472;-67
2023/02/07 06:12:40;;;;;;;10.30;5.93;;;;;;;-2.83;100.00;102244.59;5011594;28;20095;-67
2023/02/07 06:15:06;;;;;;;13.70;7.33;;;;;;;-2.81;100.00;102258.34;5021488;28;20030;-69
2023/02/07 06:17:32;;;;;;;11.77;6.73;;;;;;;-2.88;100.00;102264.25;5032635;28;20034;-66
2023/02/07 06:19:57;;;;;;;12.30;6.53;;;;;;;-3.18;100.00;102203.41;5046061;28;20399;-67
2023/02/07 06:22:23;;;;;;;11.23;6.47;;;;;;;-2.90;100.00;102250.56;5014850;28;20399;-67
2023/02/07 06:24:48;;;;;;;10.63;6.20;;;;;;;-2.83;100.00;102255.63;5023216;28;20037;-67
2023/02/07 06:27:14;;;;;;;13.67;6.80;;;;;;;-2.84;100.00;102247.84;5032109;28;20030;-68
2023/02/07 06:29:39;;;;;;;11.93;6.60;;;;;;;-3.04;100.00;102213.53;5041399;28;20033;-68
2023/02/07 06:32:04;;;;;;;10.80;6.83;;;;;;;-2.85;100.00;102254.53;5045589;28;20025;-68
2023/02/07 06:34:30;;;;;;;10.90;7.20;;;;;;;-2.95;100.00;102244.94;5050478;28;20040;-67
2023/02/07 06:36:55;;;;;;;12.47;6.10;;;;;;;-2.80;100.00;102267.72;5049993;28;20426;-67
2023/02/07 06:39:21;;;;;;;11.83;6.17;;;;;;;-2.82;100.00;102274.22;5049071;28;20053;-68
2023/02/07 06:41:46;;;;;;;9.80;5.50;;;;;;;-2.83;100.00;102248.06;5038329;28;20120;-68
2023/02/07 06:44:12;;;;;;;13.03;5.67;;;;;;;-3.03;99.63;102210.25;5042980;28;20021;-68
2023/02/07 06:46:37;;;;;;;10.47;5.23;;;;;;;-2.78;98.98;102252.03;5012711;28;20484;-68
2023/02/07 06:49:03;;;;;;;8.03;4.90;;;;;;;-2.81;98.86;102246.59;5048463;28;20053;-68
2023/02/07 06:51:29;;;;;;;10.33;5.40;;;;;;;-2.58;98.51;102268.63;5031729;28;20056;-68
2023/02/07 06:53:54;;;;;;;9.50;6.00;;;;;;;-2.46;98.33;102266.66;5040911;28;20552;-68
2023/02/07 06:56:21;;;;;;;10.73;6.07;;;;;;;-2.41;98.24;102257.09;5032299;28;20152;-68
2023/02/07 06:58:46;;;;;;;9.27;5.23;;;;;;;-2.37;96.35;102237.38;5030306;28;20479;-68
2023/02/07 07:01:12;;;;;;;10.53;4.93;;;;;;;-2.25;95.57;102262.34;5045839;28;20021;-68
2023/02/07 07:03:37;;;;;;;10.10;5.53;;;;;;;-2.17;95.38;102251.47;5045179;28;20036;-68
2023/02/07 07:06:03;;;;;;;11.40;6.23;;;;;;;-2.02;95.16;102265.00;5049603;28;20080;-67
2023/02/07 07:08:28;;;;;;;9.10;5.30;;;;;;;-2.21;94.10;102222.38;5044448;28;20063;-67
2023/02/07 07:10:55;;;;;;;10.57;6.10;;;;;;;-2.06;94.32;102255.25;5049731;28;20025;-66
2023/02/07 07:13:21;;;;;;;11.43;6.30;;;;;;;-2.03;94.32;102260.66;5034135;28;20029;-68
2023/02/07 07:15:46;;;;;;;12.70;7.63;;;;;;;-2.04;94.85;102258.88;5051043;28;20025;-68
2023/02/07 07:18:12;;;;;;;10.97;6.53;;;;;;;-2.37;95.40;102224.72;5053768;28;20039;-67
2023/02/07 07:20:38;;;;;;;10.87;6.00;;;;;;;-2.11;94.58;102259.78;5040073;28;20060;-68
2023/02/07 07:23:03;;;;;;;10.07;5.73;;;;;;;-2.34;94.30;102220.03;5053486;28;20108;-69
2023/02/07 07:25:30;;;;;;;13.37;5.73;;;;;;;-2.10;93.86;102279.28;5050292;28;20454;-68
2023/02/07 07:27:56;;;;;;;8.83;5.60;;;;;;;-2.01;94.32;102272.75;5043968;28;20029;-68
2023/02/07 07:30:22;;;;;;;10.63;5.50;;;;;;;-2.03;90.86;102248.00;5036719;28;20029;-69
2023/02/07 07:32:47;;;;;;;8.73;5.23;;;;;;;-1.91;89.55;102269.69;5034078;28;20095;-68
2023/02/07 07:35:13;;;;;;;9.13;5.17;;;;;;;-2.13;87.47;102225.78;5033865;28;20033;-69
2023/02/07 07:37:40;;;;;;;8.83;4.67;;;;;;;-1.92;86.91;102270.38;5033770;28;20037;-69
2023/02/07 07:40:06;;;;;;;8.83;4.53;;;;;;;-1.89;88.38;102259.75;5034025;28;20135;-68
2023/02/07 07:42:31;;;;;;;8.30;4.47;;;;;;;-1.89;86.85;102263.16;5034040;28;20475;-68
2023/02/07 07:44:57;;;;;;;9.97;5.53;;;;;;;-1.91;85.95;102262.06;5033889;28;20108;-69
2023/02/07 07:47:23;;;;;;;12.57;6.27;;;;;;;-1.90;86.72;102266.41;5033762;28;20029;-68
2023/02/07 07:49:49;;;;;;;9.70;4.67;;;;;;;-1.98;85.20;102255.41;5033865;28;20029;-68
2023/02/07 07:52:14;;;;;;;7.97;4.43;;;;;;;-1.96;86.06;102266.63;5033442;28;20384;-68
2023/02/07 07:54:40;;;;;;;8.03;4.70;;;;;;;-1.95;87.46;102238.03;5033375;28;20025;-68
2023/02/07 07:57:05;;;;;;;13.80;8.70;;;;;;;-1.72;86.56;102264.22;5015629;28;20034;-68
2023/02/07 07:59:30;;;;;;;11.87;7.03;;;;;;;-1.64;86.63;102264.34;5033416;28;20025;-68
2023/02/07 08:01:56;;;;;;;9.50;6.47;;;;;;;-1.72;87.11;102231.28;4998535;28;20046;-69
2023/02/07 08:04:21;;;;;;;9.50;5.50;;;;;;;-1.58;85.37;102254.03;5033367;28;20041;-68
2023/02/07 08:06:47;;;;;;;7.37;4.43;;;;;;;-1.51;84.33;102264.16;5033272;28;20415;-70
2023/02/07 08:09:13;;;;;;;7.60;5.00;;;;;;;-1.47;84.25;102267.91;5033229;28;20107;-70
2023/02/07 08:11:39;;;;;;;11.43;5.00;;;;;;;-1.72;82.83;102205.97;4932834;29;20051;-70
2023/02/07 08:14:05;;;;;;;7.63;4.60;;;;;;;-1.37;83.82;102259.72;4933653;29;20067;-67
2023/02/07 08:16:30;;;;;;;7.83;4.83;;;;;;;-1.33;83.31;102264.44;4933652;29;20134;-68
2023/02/07 08:18:56;;;;;;;7.73;4.63;;;;;;;-1.36;82.07;102265.00;4933694;29;20122;-68
2023/02/07 08:21:21;;;;;;;8.00;4.73;;;;;;;-1.29;82.57;102258.97;4933463;29;20130;-68
2023/02/07 08:23:47;;;;;;;8.40;4.90;;;;;;;-1.28;82.71;102264.94;4933476;29;20422;-68
2023/02/07 08:26:13;;;;;;;7.83;4.73;;;;;;;-1.29;83.22;102260.63;4933706;29;20144;-68
2023/02/07 08:28:38;;;;;;;6.97;4.30;;;;;;;-1.26;83.00;102266.03;4933355;29;20051;-68
2023/02/07 08:31:05;;;;;;;10.10;5.03;;;;;;;-1.27;83.04;102267.66;4933312;29;20040;-68
2023/02/07 08:33:31;;;;;;;8.23;5.10;;;;;;;-1.28;82.97;102268.41;4933189;29;20028;-68
2023/02/07 08:35:57;;;;;;;10.77;5.20;;;;;;;-1.23;84.60;102267.28;4933187;29;20102;-68
2023/02/07 08:38:23;;;;;;;10.23;5.30;;;;;;;-1.23;83.66;102266.41;4933048;29;20134;-68
2023/02/07 08:40:49;;;;;;;7.80;4.63;;;;;;;-1.25;83.64;102270.38;4933257;29;20190;-69
2023/02/07 08:43:15;;;;;;;7.27;4.60;;;;;;;-1.34;82.88;102270.22;5008791;28;20411;-69
2023/02/07 08:45:45;;;;;;;8.37;4.60;;;;;;;-1.32;83.36;102251.06;4983581;28;20042;-67
2023/02/07 08:48:10;;;;;;;8.60;5.40;;;;;;;-1.25;83.68;102251.00;5032551;28;20037;-67
2023/02/07 08:50:36;;;;;;;9.87;4.87;;;;;;;-1.25;82.99;102245.91;5032466;28;20599;-68
2023/02/07 08:53:05;;;;;;;8.97;4.83;;;;;;;-1.49;82.22;102201.00;5032470;28;20029;-69
2023/02/07 08:55:30;;;;;;;7.07;4.50;;;;;;;-1.26;81.76;102249.19;5032555;28;20040;-67
2023/02/07 08:57:56;;;;;;;9.23;4.73;;;;;;;-1.20;81.80;102256.59;5032692;28;20033;-68
2023/02/07 09:00:22;;;;;;;11.17;5.67;;;;;;;-1.11;82.78;102254.19;5032405;28;20411;-68
2023/02/07 09:02:48;;;;;;;7.47;4.30;;;;;;;-1.13;80.58;102259.09;5009690;28;20034;-67
2023/02/07 09:05:13;;;;;;;7.10;4.17;;;;;;;-1.21;79.21;102244.63;5032472;28;20502;-67
2023/02/07 09:07:39;;;;;;;8.27;4.90;;;;;;;-1.05;81.15;102258.28;5032463;28;20156;-68
2023/02/07 09:10:06;;;;;;;10.37;5.53;;;;;;;-0.90;82.98;102221.06;5032133;28;20084;-67
2023/02/07 09:12:33;;;;;;;8.80;5.60;;;;;;;-0.41;80.66;102257.66;5032088;28;20030;-68
2023/02/07 09:14:59;;;;;;;8.77;5.30;;;;;;;-0.18;78.84;102250.94;5032626;28;20050;-69
2023/02/07 09:17:24;;;;;;;7.27;4.07;;;;;;;-0.14;78.34;102253.81;5031983;28;20039;-70
2023/02/07 09:19:50;;;;;;;8.90;4.53;;;;;;;-0.28;75.44;102257.41;5032257;28;20033;-69
2023/02/07 09:22:15;;;;;;;8.33;4.43;;;;;;;-0.37;76.34;102250.56;5032228;28;20025;-69
2023/02/07 09:24:41;;;;;;;6.67;3.80;;;;;;;-0.71;76.77;102234.19;5030978;28;20069;-69
2023/02/07 09:27:08;;;;;;;8.63;4.80;;;;;;;-0.65;77.94;102241.56;5032082;28;20021;-68
2023/02/07 09:29:34;;;;;;;7.20;3.87;;;;;;;-0.66;76.61;102247.38;5031973;28;20033;-68
2023/02/07 09:31:59;;;;;;;8.60;4.60;;;;;;;-0.73;77.43;102244.91;5031572;28;20029;-68
2023/02/07 09:34:24;;;;;;;7.73;4.20;;;;;;;-0.80;78.33;102255.97;5014568;28;20045;-71
2023/02/07 09:36:50;;;;;;;6.60;4.13;;;;;;;-0.78;77.57;102251.09;5031844;28;20029;-69
2023/02/07 09:39:16;;;;;;;7.83;4.23;;;;;;;-1.09;77.37;102191.91;5031798;28;20057;-70
2023/02/07 09:42:18;;;;;;;6.73;4.17;;;;;;;-1.11;77.56;102193.34;5031663;28;20045;-70
2023/02/07 09:44:51;;;;;;;7.20;4.10;;;;;;;-0.95;76.38;102201.03;5031650;28;20083;-71
2023/02/07 09:47:20;;;;;;;6.30;3.70;;;;;;;-0.73;75.80;102235.63;5031677;28;20060;-70
2023/02/07 09:50:07;;;;;;;6.57;4.45;;;;;;;-0.65;74.79;102228.88;5031659;28;20068;-69
2023/02/07 09:52:39;;;;;;;6.67;3.73;;;;;;;-0.90;74.79;102190.66;5031322;28;20021;-70
2023/02/07 09:55:17;;;;;;;6.63;3.83;;;;;;;-0.77;74.68;102210.69;5031278;28;20029;-70
2023/02/07 09:57:48;;;;;;;7.17;4.50;;;;;;;-0.54;74.17;102197.09;5031821;28;20033;-70
2023/02/07 10:00:28;;;;;;;7.37;4.10;;;;;;;-0.54;72.86;102172.59;5031478;28;20112;-69
2023/02/07 10:03:21;;;;;;;10.52;4.30;;;;;;;-0.29;73.36;102208.25;5026093;28;20072;-69
2023/02/07 10:05:53;;;;;;;12.37;3.87;;;;;;;-0.04;73.89;102205.84;4931573;29;20514;-69
2023/02/07 10:08:19;;;;;;;6.57;3.57;;;;;;;0.18;72.51;102196.34;4931761;29;20580;-70
2023/02/07 10:11:15;;;;;;;8.63;4.20;;;;;;;0.55;72.59;102189.16;4916017;29;20047;-68
2023/02/07 10:14:19;;;;;;;12.20;4.20;;;;;;;0.09;72.79;102137.84;4949777;29;20125;-70
2023/02/07 10:16:50;;;;;;;5.17;3.67;;;;;;;-0.17;72.54;102189.28;4879443;29;20045;-69
2023/02/07 10:19:21;;;;;;;8.23;4.17;;;;;;;-0.48;74.15;102147.00;4874853;29;20412;-69
2023/02/07 10:22:04;;;;;;;7.87;4.27;;;;;;;-0.34;73.30;102192.56;4884790;29;20032;-73
2023/02/07 10:24:35;;;;;;;8.07;4.37;;;;;;;-0.79;73.23;102133.53;4897217;29;20040;-75
2023/02/07 10:27:09;;;;;;;5.83;2.53;;;;;;;-0.63;72.71;102184.28;4912025;29;20055;-73
2023/02/07 10:29:51;;;;;;;6.93;4.17;;;;;;;-0.57;73.44;102177.34;4911334;29;20118;-71
2023/02/07 10:32:23;;;;;;;6.87;4.07;;;;;;;-0.57;74.83;102186.63;4911342;29;20051;-74
2023/02/07 10:34:54;;;;;;;8.03;3.67;;;;;;;-0.26;74.47;102183.22;4910986;29;20494;-72
2023/02/07 10:37:25;;;;;;;6.00;3.63;;;;;;;0.15;73.20;102178.25;4911310;29;20186;-71
2023/02/07 10:40:03;;;;;;;8.87;3.50;;;;;;;-0.03;72.15;102179.72;4897953;29;20567;-72
2023/02/07 10:42:32;;;;;;;5.50;3.47;;;;;;;-0.19;73.23;102175.53;4861193;29;20110;-70
2023/02/07 10:44:58;;;;;;;7.13;3.33;;;;;;;-0.23;72.97;102163.22;4930303;29;20410;-71
2023/02/07 10:47:25;;;;;;;10.73;4.50;;;;;;;-0.19;72.29;102172.09;4930451;29;20044;-72
2023/02/07 10:49:53;;;;;;;14.43;4.97;;;;;;;0.05;73.37;102156.06;4930700;29;20510;-69
2023/02/07 10:52:38;;;;;;;5.37;3.00;;;;;;;-0.11;71.15;102165.28;4978625;28;20044;-71
2023/02/07 10:55:06;;;;;;;6.80;3.77;;;;;;;-0.13;73.27;102161.69;5033492;28;20033;-70
2023/02/07 10:57:32;;;;;;;8.57;3.80;;;;;;;0.17;72.74;102141.19;5029335;28;20029;-70
2023/02/07 11:00:21;;;;;;;10.53;3.40;;;;;;;0.18;71.42;102148.09;5029242;28;20108;-70
2023/02/07 11:02:50;;;;;;;17.30;3.67;;;;;;;-0.01;70.39;102148.66;5030267;28;20079;-70
2023/02/07 11:05:16;;;;;;;8.50;3.63;;;;;;;0.06;70.48;102155.28;4994662;28;20036;-71
2023/02/07 11:07:57;;;;;;;12.50;4.17;;;;;;;0.28;70.89;102145.75;5030181;28;20025;-72
2023/02/07 11:10:24;;;;;;;6.40;3.80;;;;;;;0.36;69.70;102146.56;5017928;28;20029;-70
2023/02/07 11:12:56;;;;;;;6.73;3.37;;;;;;;0.07;70.96;102074.94;5029226;28;20095;-70
2023/02/07 11:15:27;;;;;;;8.23;3.50;;;;;;;0.08;70.75;102152.94;4993804;28;20180;-69
2023/02/07 11:17:55;;;;;;;7.00;4.20;;;;;;;-0.24;72.07;102102.16;5029646;28;20502;-69
2023/02/07 11:20:29;;;;;;;10.07;4.13;;;;;;;0.31;70.73;102140.09;5029543;28;20052;-69
2023/02/07 11:22:56;;;;;;;7.17;4.10;;;;;;;0.63;71.04;102128.22;4994376;28;20048;-70